Time;durP1;ratioP1;P1;durP2;ratioP2;P2;SDS_P1;SDS_P2;PMS_P1;PMS_P2;Temp;Humidity;BMP_temperature;BMP_pressure;BME280_temperature;BME280_humidity;BME280_pressure;Samples;Min_cycle;Max_cycle;Signal;HPM_P1;HPM_P2
2024/01/21 00:00:52;;;;;;;1.70;1.60;;;;;;;;;;5019268;28;20084;-69
2024/01/21 00:03:18;;;;;;;1.92;1.83;;;;;;;;;;5013667;28;20398;-69
2024/01/21 00:05:44;;;;;;;1.98;1.80;;;;;;;;;;5016130;28;20741;-68
2024/01/21 00:08:10;;;;;;;1.40;1.40;;;;;;;;;;5022010;28;20056;-68
2024/01/21 00:10:37;;;;;;;1.73;1.63;;;;;;;;;;5034338;28;20029;-68
2024/01/21 00:13:03;;;;;;;2.67;1.95;;;;;;;;;;5019597;28;20413;-69
2024/01/21 00:15:29;;;;;;;1.85;1.75;;;;;;;;;;5034174;28;20232;-68
2024/01/21 00:17:55;;;;;;;1.55;1.45;;;;;;;;;;5020256;28;20034;-69
2024/01/21 00:20:21;;;;;;;1.52;1.45;;;;;;;;;;5018721;28;20033;-69
2024/01/21 00:22:47;;;;;;;2.00;1.70;;;;;;;;;;5021186;28;20030;-69
2024/01/21 00:25:14;;;;;;;1.80;1.70;;;;;;;;;;5013422;28;20032;-69
2024/01/21 00:27:40;;;;;;;1.73;1.63;;;;;;;;;;5033212;28;20180;-68
2024/01/21 00:30:06;;;;;;;1.45;1.40;;;;;;;;;;5036909;28;20101;-69
2024/01/21 00:32:32;;;;;;;1.75;1.60;;;;;;;;;;5011211;28;20037;-69
2024/01/21 00:34:58;;;;;;;2.38;1.45;;;;;;;;;;5015355;28;20038;-69
2024/01/21 00:37:25;;;;;;;1.23;1.23;;;;;;;;;;5022895;28;20547;-69
2024/01/21 00:39:51;;;;;;;1.83;1.70;;;;;;;;;;5026040;28;20121;-68
2024/01/21 00:42:17;;;;;;;1.60;1.50;;;;;;;;;;5026227;28;20033;-68
2024/01/21 00:44:43;;;;;;;1.50;1.40;;;;;;;;;;5042368;28;20583;-68
2024/01/21 00:47:09;;;;;;;1.95;1.60;;;;;;;;;;5018451;28;20025;-69
2024/01/21 00:49:36;;;;;;;1.70;1.63;;;;;;;;;;5016877;28;20030;-69
2024/01/21 00:52:02;;;;;;;3.58;2.00;;;;;;;;;;5016813;28;20478;-68
2024/01/21 00:54:28;;;;;;;1.63;1.52;;;;;;;;;;5026841;28;20076;-69
2024/01/21 00:56:54;;;;;;;2.20;2.00;;;;;;;;;;5025521;28;20036;-69
2024/01/21 00:59:20;;;;;;;2.42;2.13;;;;;;;;;;5038820;28;20032;-69
2024/01/21 01:01:46;;;;;;;1.85;1.75;;;;;;;;;;5015966;28;20083;-68
2024/01/21 01:04:13;;;;;;;1.88;1.77;;;;;;;;;;5015931;28;20116;-69
2024/01/21 01:06:39;;;;;;;2.75;1.80;;;;;;;;;;5021841;28;20029;-69
2024/01/21 01:09:05;;;;;;;1.60;1.50;;;;;;;;;;5019409;28;20027;-69
2024/01/21 01:11:31;;;;;;;1.42;1.33;;;;;;;;;;5018939;28;20025;-69
2024/01/21 01:13:58;;;;;;;1.70;1.60;;;;;;;;;;5038215;28;20112;-68
2024/01/21 01:16:24;;;;;;;1.65;1.55;;;;;;;;;;5039881;28;20036;-70
2024/01/21 01:18:50;;;;;;;1.52;1.42;;;;;;;;;;5031665;28;20025;-69
2024/01/21 01:21:16;;;;;;;1.90;1.80;;;;;;;;;;5023892;28;20026;-69
2024/01/21 01:23:43;;;;;;;2.50;1.67;;;;;;;;;;5021160;28;20076;-69
2024/01/21 01:26:09;;;;;;;1.33;1.30;;;;;;;;;;5019332;28;20088;-69
2024/01/21 01:28:35;;;;;;;2.25;1.63;;;;;;;;;;5016605;28;20025;-68
2024/01/21 01:31:01;;;;;;;2.00;1.90;;;;;;;;;;5019609;28;20025;-68
2024/01/21 01:33:27;;;;;;;1.45;1.35;;;;;;;;;;5016399;28;20028;-68
2024/01/21 01:35:53;;;;;;;2.03;1.80;;;;;;;;;;5040195;28;20120;-68
2024/01/21 01:38:19;;;;;;;3.80;1.50;;;;;;;;;;5021814;28;20355;-69
2024/01/21 01:40:46;;;;;;;1.55;1.45;;;;;;;;;;5018435;28;20048;-68
2024/01/21 01:43:12;;;;;;;5.50;1.90;;;;;;;;;;5023406;28;20392;-68
2024/01/21 01:45:38;;;;;;;4.43;1.98;;;;;;;;;;5040328;28;20235;-69
2024/01/21 01:48:04;;;;;;;1.75;1.65;;;;;;;;;;5011371;28;20546;-68
2024/01/21 01:50:33;;;;;;;3.45;1.85;;;;;;;;;;5035462;28;20405;-69
2024/01/21 01:52:59;;;;;;;3.65;1.70;;;;;;;;;;5014104;28;20382;-69
2024/01/21 01:55:26;;;;;;;1.70;1.60;;;;;;;;;;5020561;28;20040;-68
2024/01/21 01:57:52;;;;;;;2.97;2.13;;;;;;;;;;5018798;28;20629;-69
2024/01/21 02:00:18;;;;;;;4.03;2.20;;;;;;;;;;5035562;28;20029;-68
2024/01/21 02:02:45;;;;;;;1.30;1.20;;;;;;;;;;5020029;28;20028;-69
2024/01/21 02:05:11;;;;;;;2.42;1.45;;;;;;;;;;5016824;28;20117;-68
2024/01/21 02:07:37;;;;;;;2.35;1.45;;;;;;;;;;5018716;28;20036;-68
2024/01/21 02:10:04;;;;;;;1.40;1.30;;;;;;;;;;5016213;28;20366;-68
2024/01/21 02:12:30;;;;;;;2.88;1.75;;;;;;;;;;5015063;28;20017;-68
2024/01/21 02:14:57;;;;;;;1.38;1.30;;;;;;;;;;5013243;28;20026;-69
2024/01/21 02:17:23;;;;;;;3.17;1.40;;;;;;;;;;5028507;28;20039;-68
2024/01/21 02:19:50;;;;;;;1.33;1.33;;;;;;;;;;5024973;28;20021;-68
2024/01/21 02:22:16;;;;;;;2.10;1.60;;;;;;;;;;5052445;28;20021;-69
2024/01/21 02:24:42;;;;;;;1.63;1.30;;;;;;;;;;5039660;28;20120;-69
2024/01/21 02:27:08;;;;;;;3.30;1.02;;;;;;;;;;5015969;28;20049;-69
2024/01/21 02:29:34;;;;;;;1.50;1.40;;;;;;;;;;5015047;28;20092;-69
2024/01/21 02:32:00;;;;;;;3.22;1.50;;;;;;;;;;5016575;28;20033;-68
2024/01/21 02:34:26;;;;;;;2.10;1.75;;;;;;;;;;5017112;28;20544;-69
2024/01/21 02:36:52;;;;;;;5.32;3.90;;;;;;;;;;5019215;28;21616;-68
2024/01/21 02:39:19;;;;;;;7.85;5.00;;;;;;;;;;5019162;28;20034;-68
2024/01/21 02:41:45;;;;;;;4.22;3.00;;;;;;;;;;5020991;28;20123;-69
2024/01/21 02:44:11;;;;;;;2.30;2.10;;;;;;;;;;5031668;28;20026;-69
2024/01/21 02:46:37;;;;;;;2.28;2.08;;;;;;;;;;5022306;28;20026;-68
2024/01/21 02:49:03;;;;;;;2.17;1.55;;;;;;;;;;5016589;28;20432;-69
2024/01/21 02:51:30;;;;;;;2.47;1.50;;;;;;;;;;5017842;28;20117;-69
2024/01/21 02:53:56;;;;;;;3.08;1.50;;;;;;;;;;5020252;28;20095;-69
2024/01/21 02:56:26;;;;;;;1.35;1.27;;;;;;;;;;5023358;28;20025;-68
2024/01/21 02:58:53;;;;;;;1.60;1.50;;;;;;;;;;5031929;28;20508;-69
2024/01/21 03:01:19;;;;;;;1.98;1.88;;;;;;;;;;5020380;28;20032;-70
2024/01/21 03:03:46;;;;;;;1.50;1.40;;;;;;;;;;5027191;28;20026;-69
2024/01/21 03:06:13;;;;;;;1.48;1.40;;;;;;;;;;5032389;28;20044;-69
2024/01/21 03:08:39;;;;;;;1.20;1.20;;;;;;;;;;5019003;28;20034;-68
2024/01/21 03:11:05;;;;;;;1.25;1.25;;;;;;;;;;5017566;28;20057;-69
2024/01/21 03:13:31;;;;;;;1.58;1.48;;;;;;;;;;5030695;28;20100;-70
2024/01/21 03:15:57;;;;;;;1.30;1.30;;;;;;;;;;5033745;28;20046;-69
2024/01/21 03:18:25;;;;;;;2.35;1.83;;;;;;;;;;5027917;28;20655;-69
2024/01/21 03:20:51;;;;;;;1.70;1.60;;;;;;;;;;5020369;28;20602;-69
2024/01/21 03:23:18;;;;;;;2.00;1.88;;;;;;;;;;5021050;28;20037;-69
2024/01/21 03:25:45;;;;;;;2.97;2.08;;;;;;;;;;5018744;28;20029;-69
2024/01/21 03:28:12;;;;;;;1.85;1.75;;;;;;;;;;5029652;28;21115;-68
2024/01/21 03:30:39;;;;;;;2.78;1.95;;;;;;;;;;5016531;28;20018;-70
2024/01/21 03:33:05;;;;;;;5.95;3.63;;;;;;;;;;5024467;28;20026;-69
2024/01/21 03:35:31;;;;;;;7.97;3.25;;;;;;;;;;5028818;28;20338;-69
2024/01/21 03:37:57;;;;;;;3.70;2.10;;;;;;;;;;5025461;28;20041;-70
2024/01/21 03:40:24;;;;;;;1.70;1.60;;;;;;;;;;5026672;28;20503;-69
2024/01/21 03:42:50;;;;;;;4.90;3.13;;;;;;;;;;5022380;28;20033;-69
2024/01/21 03:45:16;;;;;;;4.47;2.63;;;;;;;;;;5023654;28;20060;-70
2024/01/21 03:47:42;;;;;;;2.97;1.90;;;;;;;;;;5023750;28;20045;-69
2024/01/21 03:50:08;;;;;;;4.40;2.28;;;;;;;;;;5032513;28;20026;-69
2024/01/21 03:52:35;;;;;;;3.35;2.13;;;;;;;;;;5017684;28;20044;-69
2024/01/21 03:55:01;;;;;;;5.78;2.17;;;;;;;;;;5021251;28;20763;-72
2024/01/21 03:57:28;;;;;;;2.05;1.92;;;;;;;;;;5022034;28;20029;-69
2024/01/21 03:59:54;;;;;;;2.88;2.38;;;;;;;;;;5027588;28;20029;-69
2024/01/21 04:02:22;;;;;;;7.68;2.67;;;;;;;;;;5018685;28;20079;-71
2024/01/21 04:04:48;;;;;;;3.92;2.10;;;;;;;;;;5040434;28;20184;-69
2024/01/21 04:07:14;;;;;;;1.90;1.77;;;;;;;;;;5025547;28;20044;-69
2024/01/21 04:09:40;;;;;;;5.30;2.70;;;;;;;;;;5026511;28;20036;-69
2024/01/21 04:12:07;;;;;;;2.78;1.90;;;;;;;;;;5018671;28;20110;-68
2024/01/21 04:14:33;;;;;;;2.08;1.88;;;;;;;;;;5020674;28;20370;-69
2024/01/21 04:16:59;;;;;;;4.60;1.80;;;;;;;;;;5025312;28;20033;-69
2024/01/21 04:19:25;;;;;;;2.28;2.08;;;;;;;;;;5022494;28;20018;-70
2024/01/21 04:21:51;;;;;;;6.45;2.00;;;;;;;;;;5020267;28;20044;-73
2024/01/21 04:24:17;;;;;;;2.05;1.85;;;;;;;;;;5019062;28;20058;-69
2024/01/21 04:26:43;;;;;;;1.77;1.67;;;;;;;;;;5027381;28;20320;-68
2024/01/21 04:29:10;;;;;;;2.10;1.90;;;;;;;;;;5024835;28;20021;-75
2024/01/21 04:31:36;;;;;;;2.08;1.90;;;;;;;;;;5022090;28;20310;-69
2024/01/21 04:34:02;;;;;;;3.25;2.40;;;;;;;;;;5017150;28;20457;-73
2024/01/21 04:36:28;;;;;;;2.80;1.88;;;;;;;;;;5028863;28;20052;-69
2024/01/21 04:38:54;;;;;;;5.38;2.10;;;;;;;;;;5027253;28;20202;-71
2024/01/21 04:41:20;;;;;;;11.35;2.45;;;;;;;;;;5017234;28;20382;-71
2024/01/21 04:43:47;;;;;;;4.60;2.42;;;;;;;;;;5023024;28;20021;-69
2024/01/21 04:46:14;;;;;;;2.42;1.65;;;;;;;;;;5032414;28;20025;-71
2024/01/21 04:48:40;;;;;;;3.10;2.17;;;;;;;;;;5025997;28;20101;-69
2024/01/21 04:51:06;;;;;;;5.53;2.35;;;;;;;;;;5037225;28;20062;-69
2024/01/21 04:53:33;;;;;;;4.03;1.95;;;;;;;;;;5021734;28;20029;-71
2024/01/21 04:56:00;;;;;;;4.07;2.42;;;;;;;;;;5027702;28;20099;-69
2024/01/21 04:58:26;;;;;;;5.28;1.92;;;;;;;;;;5022892;28;20420;-68
2024/01/21 05:00:52;;;;;;;5.53;1.80;;;;;;;;;;5021708;28;20639;-69
2024/01/21 05:03:18;;;;;;;4.97;2.25;;;;;;;;;;5018607;28;20180;-69
2024/01/21 05:05:44;;;;;;;7.40;2.05;;;;;;;;;;5021202;28;20378;-68
2024/01/21 05:08:11;;;;;;;2.55;2.17;;;;;;;;;;5044014;28;20029;-69
2024/01/21 05:10:37;;;;;;;7.70;2.20;;;;;;;;;;5024370;28;20037;-69
2024/01/21 05:13:03;;;;;;;7.90;2.10;;;;;;;;;;5016540;28;20033;-71
2024/01/21 05:15:29;;;;;;;7.78;1.88;;;;;;;;;;5026810;28;20030;-69
2024/01/21 05:17:56;;;;;;;1.73;1.60;;;;;;;;;;5020568;28;20068;-71
2024/01/21 05:20:23;;;;;;;4.35;1.85;;;;;;;;;;5025270;28;20021;-69
2024/01/21 05:22:50;;;;;;;2.00;1.80;;;;;;;;;;5025295;28;20033;-69
2024/01/21 05:25:17;;;;;;;8.80;1.85;;;;;;;;;;5021478;28;20032;-70
2024/01/21 05:27:43;;;;;;;2.50;1.83;;;;;;;;;;5024768;28;20116;-70
2024/01/21 05:30:11;;;;;;;5.38;2.00;;;;;;;;;;5023329;28;20021;-69
2024/01/21 05:32:37;;;;;;;2.10;1.63;;;;;;;;;;5018743;28;20056;-70
2024/01/21 05:35:03;;;;;;;3.35;1.92;;;;;;;;;;5021046;28;20037;-69
2024/01/21 05:37:30;;;;;;;3.88;2.15;;;;;;;;;;5028140;28;20044;-69
2024/01/21 05:39:56;;;;;;;3.20;1.73;;;;;;;;;;5031982;28;20388;-70
2024/01/21 05:42:22;;;;;;;1.67;1.58;;;;;;;;;;5029222;28;20104;-70
2024/01/21 05:44:48;;;;;;;3.35;1.50;;;;;;;;;;5027673;28;20030;-71
2024/01/21 05:47:14;;;;;;;3.65;1.33;;;;;;;;;;5028191;28;20025;-72
2024/01/21 05:49:40;;;;;;;2.70;1.88;;;;;;;;;;5015666;28;20033;-69
2024/01/21 05:52:06;;;;;;;4.43;1.70;;;;;;;;;;5019345;28;20520;-68
2024/01/21 05:54:33;;;;;;;2.15;1.95;;;;;;;;;;5010839;28;20044;-72
2024/01/21 05:56:59;;;;;;;2.35;2.00;;;;;;;;;;5031120;28;20041;-71
2024/01/21 05:59:36;;;;;;;;;;;;;;;;;;5102888;27;20437;-70
2024/01/21 06:02:02;;;;;;;;;;;;;;;;;;5081818;28;19912;-70
2024/01/21 06:04:32;;;;;;;1.92;1.73;;;;;;;;;;5093838;28;19919;-70
2024/01/21 06:06:59;;;;;;;1.70;1.60;;;;;;;;;;5094829;28;20023;-70
2024/01/21 06:09:25;;;;;;;2.65;2.42;;;;;;;;;;5089747;28;20078;-70
2024/01/21 06:11:51;;;;;;;4.45;1.63;;;;;;;;;;5102109;28;20050;-69
2024/01/21 06:14:18;;;;;;;4.45;1.77;;;;;;;;;;5084935;28;20028;-69
2024/01/21 06:16:44;;;;;;;2.92;1.40;;;;;;;;;;5076646;28;20358;-69
2024/01/21 06:19:10;;;;;;;4.68;1.85;;;;;;;;;;5098035;28;20482;-69
2024/01/21 06:21:43;;;;;;;5.10;1.50;;;;;;;;;;5077918;28;20444;-69
2024/01/21 06:24:10;;;;;;;10.45;1.90;;;;;;;;;;5096933;28;20039;-69
2024/01/21 06:26:40;;;;;;;6.43;1.45;;;;;;;;;;5080699;28;21414;-68
2024/01/21 06:29:07;;;;;;;4.32;1.70;;;;;;;;;;5089392;28;20072;-69
2024/01/21 06:31:33;;;;;;;3.42;1.60;;;;;;;;;;5087584;28;20035;-69
2024/01/21 06:33:59;;;;;;;1.58;1.33;;;;;;;;;;5086907;28;20606;-68
2024/01/21 06:36:25;;;;;;;1.67;1.58;;;;;;;;;;5088581;28;20028;-69
2024/01/21 06:38:51;;;;;;;4.65;1.65;;;;;;;;;;5085485;28;20056;-69
2024/01/21 06:41:17;;;;;;;5.85;3.38;;;;;;;;;;5088620;28;20116;-69
2024/01/21 06:43:44;;;;;;;2.08;1.90;;;;;;;;;;5070639;28;20024;-69
2024/01/21 06:46:10;;;;;;;2.67;1.60;;;;;;;;;;5080432;28;20031;-69
2024/01/21 06:48:36;;;;;;;3.97;2.00;;;;;;;;;;5089144;28;20096;-69
2024/01/21 06:51:10;;;;;;;7.15;1.67;;;;;;;;;;5076856;28;20060;-69
2024/01/21 06:53:37;;;;;;;3.72;1.98;;;;;;;;;;5081624;28;21035;-69
2024/01/21 06:56:07;;;;;;;3.95;1.50;;;;;;;;;;5092201;28;20027;-68
2024/01/21 06:58:36;;;;;;;3.42;1.52;;;;;;;;;;5079432;28;20157;-68
2024/01/21 07:01:02;;;;;;;4.72;1.73;;;;;;;;;;5088158;28;20480;-69
2024/01/21 07:03:29;;;;;;;6.53;2.13;;;;;;;;;;5087868;28;20028;-69
2024/01/21 07:05:56;;;;;;;6.80;1.80;;;;;;;;;;5090170;28;20024;-69
2024/01/21 07:08:22;;;;;;;1.55;1.30;;;;;;;;;;5091019;28;20024;-69
2024/01/21 07:10:48;;;;;;;9.80;1.90;;;;;;;;;;5076021;28;20487;-69
2024/01/21 07:13:14;;;;;;;3.67;1.63;;;;;;;;;;5080611;28;20032;-68
2024/01/21 07:15:40;;;;;;;6.10;1.90;;;;;;;;;;5075146;28;20037;-69
2024/01/21 07:18:09;;;;;;;7.05;2.33;;;;;;;;;;5073507;28;20487;-68
2024/01/21 07:20:35;;;;;;;5.68;1.67;;;;;;;;;;5076880;28;20055;-69
2024/01/21 07:23:01;;;;;;;5.78;1.77;;;;;;;;;;5071903;28;20021;-69
2024/01/21 07:25:27;;;;;;;3.80;1.98;;;;;;;;;;5076269;28;20035;-69
2024/01/21 07:27:53;;;;;;;4.82;1.75;;;;;;;;;;5073746;28;20433;-68
2024/01/21 07:30:20;;;;;;;15.45;2.38;;;;;;;;;;5081035;28;20606;-69
2024/01/21 07:32:46;;;;;;;2.53;2.03;;;;;;;;;;5078465;28;20541;-69
2024/01/21 07:35:12;;;;;;;4.50;1.65;;;;;;;;;;5083423;28;20035;-68
2024/01/21 07:37:39;;;;;;;6.28;1.85;;;;;;;;;;5080481;28;20120;-69
2024/01/21 07:40:06;;;;;;;7.30;2.35;;;;;;;;;;5073534;28;20024;-68
2024/01/21 07:42:32;;;;;;;6.13;1.73;;;;;;;;;;5076325;28;20031;-69
2024/01/21 07:44:59;;;;;;;3.33;1.63;;;;;;;;;;5077862;28;20028;-69
2024/01/21 07:47:25;;;;;;;7.20;1.67;;;;;;;;;;5077870;28;20447;-68
2024/01/21 07:49:52;;;;;;;1.35;1.30;;;;;;;;;;5077157;28;20085;-69
2024/01/21 07:52:18;;;;;;;5.32;1.83;;;;;;;;;;5083853;28;20044;-69
2024/01/21 07:54:44;;;;;;;6.50;1.85;;;;;;;;;;5074085;28;20028;-69
2024/01/21 07:57:11;;;;;;;3.63;2.53;;;;;;;;;;5060043;28;20016;-69
2024/01/21 07:59:37;;;;;;;3.10;2.05;;;;;;;;;;5060439;28;20039;-68
2024/01/21 08:02:03;;;;;;;7.85;2.95;;;;;;;;;;5039919;28;20063;-69
2024/01/21 08:04:29;;;;;;;9.60;2.90;;;;;;;;;;5049556;28;20392;-69
2024/01/21 08:06:56;;;;;;;8.98;2.05;;;;;;;;;;5049223;28;20094;-69
2024/01/21 08:09:22;;;;;;;7.90;2.10;;;;;;;;;;5057778;28;20023;-68
2024/01/21 08:11:48;;;;;;;5.38;2.10;;;;;;;;;;5043118;28;20032;-68
2024/01/21 08:14:15;;;;;;;11.18;2.35;;;;;;;;;;5060505;28;20492;-68
2024/01/21 08:16:41;;;;;;;5.90;1.90;;;;;;;;;;5057381;28;21050;-69
2024/01/21 08:19:07;;;;;;;10.50;1.98;;;;;;;;;;5064593;28;20056;-69
2024/01/21 08:21:34;;;;;;;4.82;1.58;;;;;;;;;;5058577;28;20127;-68
2024/01/21 08:24:00;;;;;;;9.07;2.58;;;;;;;;;;5064245;28;20506;-69
2024/01/21 08:26:27;;;;;;;7.13;1.98;;;;;;;;;;5062017;28;20065;-68
2024/01/21 08:28:53;;;;;;;9.30;2.67;;;;;;;;;;5047846;28;20045;-68
2024/01/21 08:31:20;;;;;;;10.07;3.03;;;;;;;;;;5057459;28;20468;-68
2024/01/21 08:33:46;;;;;;;8.05;2.67;;;;;;;;;;5050307;28;20028;-70
2024/01/21 08:36:12;;;;;;;9.80;2.20;;;;;;;;;;5049252;28;20368;-69
2024/01/21 08:38:39;;;;;;;5.60;1.98;;;;;;;;;;5036639;28;20112;-69
2024/01/21 08:41:05;;;;;;;10.43;3.15;;;;;;;;;;5053269;28;20032;-70
2024/01/21 08:43:31;;;;;;;11.43;2.72;;;;;;;;;;5038468;28;20124;-69
2024/01/21 08:45:57;;;;;;;16.52;2.97;;;;;;;;;;5051526;28;20025;-69
2024/01/21 08:48:23;;;;;;;6.78;3.00;;;;;;;;;;5035462;28;20033;-69
2024/01/21 08:50:50;;;;;;;5.85;2.53;;;;;;;;;;5051014;28;20489;-70
2024/01/21 08:53:16;;;;;;;14.98;3.67;;;;;;;;;;5053854;28;20112;-69
2024/01/21 08:55:42;;;;;;;8.63;3.75;;;;;;;;;;5051465;28;20066;-69
2024/01/21 08:58:08;;;;;;;11.48;3.88;;;;;;;;;;5046382;28;20064;-70
2024/01/21 09:00:34;;;;;;;13.18;2.83;;;;;;;;;;5076465;28;20535;-69
2024/01/21 09:03:00;;;;;;;17.05;3.85;;;;;;;;;;5073992;28;20031;-69
2024/01/21 09:05:28;;;;;;;13.07;3.13;;;;;;;;;;5077507;28;20035;-69
2024/01/21 09:07:54;;;;;;;11.80;2.88;;;;;;;;;;5074161;28;20028;-69
2024/01/21 09:10:21;;;;;;;10.23;2.88;;;;;;;;;;5076443;28;20482;-70
2024/01/21 09:12:47;;;;;;;12.73;3.50;;;;;;;;;;5072468;28;20033;-70
2024/01/21 09:15:13;;;;;;;15.52;2.88;;;;;;;;;;5076871;28;20636;-70
2024/01/21 09:17:41;;;;;;;11.52;2.90;;;;;;;;;;5074702;28;20038;-69
2024/01/21 09:20:07;;;;;;;9.70;2.63;;;;;;;;;;5068151;28;20020;-71
2024/01/21 09:22:34;;;;;;;13.70;3.20;;;;;;;;;;5068135;28;21267;-69
2024/01/21 09:25:00;;;;;;;16.33;2.95;;;;;;;;;;5073567;28;20473;-70
2024/01/21 09:27:26;;;;;;;16.83;3.53;;;;;;;;;;5071316;28;20560;-70
2024/01/21 09:29:52;;;;;;;4.68;2.45;;;;;;;;;;5071955;28;20023;-71
2024/01/21 09:32:18;;;;;;;6.05;2.63;;;;;;;;;;5072341;28;20062;-69
2024/01/21 09:34:45;;;;;;;7.97;2.35;;;;;;;;;;5068368;28;21111;-70
2024/01/21 09:37:11;;;;;;;13.57;3.10;;;;;;;;;;5069839;28;20104;-71
2024/01/21 09:39:37;;;;;;;17.02;3.88;;;;;;;;;;5072579;28;20040;-70
2024/01/21 09:42:08;;;;;;;8.80;3.20;;;;;;;;;;5071416;28;20093;-70
2024/01/21 09:44:34;;;;;;;7.45;3.03;;;;;;;;;;5073237;28;20077;-70
2024/01/21 09:47:01;;;;;;;10.73;2.95;;;;;;;;;;5071568;28;20047;-70
2024/01/21 09:49:27;;;;;;;15.20;3.13;;;;;;;;;;5072342;28;20081;-70
2024/01/21 09:51:54;;;;;;;8.57;3.65;;;;;;;;;;5066200;28;20062;-70
2024/01/21 09:54:21;;;;;;;9.88;3.33;;;;;;;;;;5070924;28;20040;-70
2024/01/21 09:56:48;;;;;;;10.25;3.72;;;;;;;;;;5070648;28;20028;-70
2024/01/21 09:59:14;;;;;;;10.73;2.72;;;;;;;;;;5049626;28;20040;-70
2024/01/21 10:01:41;;;;;;;15.70;3.25;;;;;;;;;;5055213;28;20036;-71
2024/01/21 10:04:11;;;;;;;15.52;3.53;;;;;;;;;;5053982;28;20021;-71
2024/01/21 10:06:37;;;;;;;13.68;2.92;;;;;;;;;;5055737;28;20100;-72
2024/01/21 10:09:13;;;;;;;13.77;3.72;;;;;;;;;;5049980;28;20036;-71
2024/01/21 10:11:41;;;;;;;14.07;3.28;;;;;;;;;;5046655;28;20348;-71
2024/01/21 10:14:07;;;;;;;13.82;3.67;;;;;;;;;;5045899;28;20028;-71
2024/01/21 10:16:33;;;;;;;7.75;3.40;;;;;;;;;;5035261;28;20036;-70
2024/01/21 10:19:00;;;;;;;14.60;3.50;;;;;;;;;;5051136;28;20337;-70
2024/01/21 10:21:26;;;;;;;11.57;3.55;;;;;;;;;;5053742;28;20033;-71
2024/01/21 10:23:52;;;;;;;8.90;3.45;;;;;;;;;;5054789;28;20020;-71
2024/01/21 10:26:18;;;;;;;18.80;3.63;;;;;;;;;;5061477;28;20032;-72
2024/01/21 10:28:44;;;;;;;10.27;4.80;;;;;;;;;;5057931;28;20033;-70
2024/01/21 10:31:10;;;;;;;11.05;4.20;;;;;;;;;;5036032;28;20032;-71
2024/01/21 10:33:36;;;;;;;15.23;5.95;;;;;;;;;;5054530;28;20085;-70
2024/01/21 10:36:03;;;;;;;15.43;4.97;;;;;;;;;;5048463;28;20046;-70
2024/01/21 10:38:30;;;;;;;12.38;4.72;;;;;;;;;;5031587;28;20111;-70
2024/01/21 10:40:57;;;;;;;21.35;4.35;;;;;;;;;;5054835;28;20028;-70
2024/01/21 10:43:23;;;;;;;13.00;4.95;;;;;;;;;;5053986;28;20737;-70
2024/01/21 10:45:50;;;;;;;11.07;4.70;;;;;;;;;;5061552;28;20020;-71
2024/01/21 10:48:16;;;;;;;15.77;4.80;;;;;;;;;;5057567;28;20033;-70
2024/01/21 10:50:43;;;;;;;9.95;3.85;;;;;;;;;;5055512;28;20036;-70
2024/01/21 10:53:13;;;;;;;5.85;2.80;;;;;;;;;;5054361;28;20111;-70
2024/01/21 10:55:40;;;;;;;10.93;3.22;;;;;;;;;;5057815;28;20028;-70
2024/01/21 10:58:07;;;;;;;15.20;4.75;;;;;;;;;;5036708;28;20459;-71
2024/01/21 11:00:34;;;;;;;13.13;3.80;;;;;;;;;;5058284;28;20048;-71
2024/01/21 11:03:18;;;;;;;12.93;3.15;;;;;;;;;;5062053;28;20503;-69
2024/01/21 11:05:47;;;;;;;7.18;2.92;;;;;;;;;;5055085;28;20045;-70
2024/01/21 11:08:14;;;;;;;12.35;3.38;;;;;;;;;;5058084;28;20052;-70
2024/01/21 11:10:40;;;;;;;14.15;4.85;;;;;;;;;;5057338;28;20490;-70
2024/01/21 11:13:09;;;;;;;7.15;2.83;;;;;;;;;;5064923;28;20032;-71
2024/01/21 11:15:36;;;;;;;12.40;2.80;;;;;;;;;;5059820;28;20119;-71
2024/01/21 11:18:11;;;;;;;6.88;2.95;;;;;;;;;;5042395;28;20066;-72
2024/01/21 11:20:37;;;;;;;;;;;;;;;;;;5043742;28;20084;-71
2024/01/21 11:23:14;;;;;;;14.65;4.32;;;;;;;;;;5059685;28;19916;-70
2024/01/21 11:25:50;;;;;;;5.20;3.15;;;;;;;;;;5057499;28;20467;-71
2024/01/21 11:28:27;;;;;;;11.00;4.72;;;;;;;;;;5049232;28;20402;-70
2024/01/21 11:30:59;;;;;;;16.90;4.03;;;;;;;;;;5040301;28;20493;-71
2024/01/21 11:33:25;;;;;;;7.60;3.65;;;;;;;;;;5056012;28;20028;-70
2024/01/21 11:35:53;;;;;;;7.63;3.08;;;;;;;;;;5054590;28;20025;-70
2024/01/21 11:38:19;;;;;;;9.32;4.05;;;;;;;;;;5043195;28;20029;-71
2024/01/21 11:40:45;;;;;;;7.47;3.47;;;;;;;;;;5061616;28;20025;-70
2024/01/21 11:43:12;;;;;;;7.03;2.83;;;;;;;;;;5063408;28;20044;-70
2024/01/21 11:45:39;;;;;;;8.18;3.33;;;;;;;;;;5069236;28;20123;-71
2024/01/21 11:48:10;;;;;;;13.45;3.90;;;;;;;;;;5057701;28;20060;-70
2024/01/21 11:50:36;;;;;;;7.45;2.70;;;;;;;;;;5054741;28;20036;-70
2024/01/21 11:53:02;;;;;;;11.27;2.92;;;;;;;;;;5054915;28;20810;-71
2024/01/21 11:55:29;;;;;;;3.58;2.30;;;;;;;;;;5052947;28;20040;-70
2024/01/21 11:57:55;;;;;;;5.13;2.40;;;;;;;;;;5054148;28;20055;-71
2024/01/21 12:00:21;;;;;;;8.68;2.78;;;;;;;;;;5058725;28;20116;-70
2024/01/21 12:02:47;;;;;;;8.50;4.40;;;;;;;;;;5055409;28;20045;-70
2024/01/21 12:05:18;;;;;;;11.27;3.47;;;;;;;;;;5051598;28;20025;-70
2024/01/21 12:07:44;;;;;;;10.85;4.43;;;;;;;;;;5062561;28;20036;-71
2024/01/21 12:10:10;;;;;;;5.78;3.33;;;;;;;;;;5041545;28;20462;-71
2024/01/21 12:12:37;;;;;;;14.70;3.35;;;;;;;;;;5055036;28;20033;-70
2024/01/21 12:15:03;;;;;;;6.40;3.22;;;;;;;;;;5060562;28;20033;-70
2024/01/21 12:17:29;;;;;;;3.50;2.47;;;;;;;;;;5057054;28;20048;-69
2024/01/21 12:19:56;;;;;;;9.20;3.33;;;;;;;;;;5034827;28;20024;-70
2024/01/21 12:22:45;;;;;;;8.27;2.53;;;;;;;;;;5058969;28;20426;-70
2024/01/21 12:25:11;;;;;;;7.55;2.40;;;;;;;;;;5050964;28;20024;-71
2024/01/21 12:27:41;;;;;;;2.00;1.88;;;;;;;;;;5038135;28;20035;-70
2024/01/21 12:30:14;;;;;;;5.15;2.25;;;;;;;;;;5054062;28;20020;-70
2024/01/21 12:32:41;;;;;;;2.35;1.95;;;;;;;;;;5061935;28;20019;-71
2024/01/21 12:35:07;;;;;;;10.75;2.85;;;;;;;;;;5050276;28;20029;-70
2024/01/21 12:37:34;;;;;;;9.90;2.10;;;;;;;;;;5060305;28;20063;-71
2024/01/21 12:40:00;;;;;;;7.60;2.80;;;;;;;;;;5057701;28;20465;-70
2024/01/21 12:42:27;;;;;;;4.72;2.17;;;;;;;;;;5055298;28;20920;-70
2024/01/21 12:44:53;;;;;;;7.63;2.20;;;;;;;;;;5059070;28;20028;-71
2024/01/21 12:47:20;;;;;;;9.23;2.70;;;;;;;;;;5043282;28;20078;-70
2024/01/21 12:49:46;;;;;;;6.25;2.65;;;;;;;;;;5036264;28;20040;-70
2024/01/21 12:52:12;;;;;;;6.70;2.17;;;;;;;;;;5060782;28;20071;-70
2024/01/21 12:54:38;;;;;;;2.88;2.13;;;;;;;;;;5057336;28;20056;-70
2024/01/21 12:57:04;;;;;;;6.82;3.08;;;;;;;;;;5039693;28;20025;-70
2024/01/21 12:59:30;;;;;;;7.28;3.03;;;;;;;;;;5054521;28;20048;-70
2024/01/21 13:01:57;;;;;;;5.10;2.78;;;;;;;;;;5042689;28;20071;-70
2024/01/21 13:04:24;;;;;;;3.97;2.40;;;;;;;;;;5040475;28;20062;-70
2024/01/21 13:06:50;;;;;;;4.00;2.40;;;;;;;;;;5061688;28;20516;-72
2024/01/21 13:09:16;;;;;;;7.90;2.65;;;;;;;;;;5058054;28;20107;-72
2024/01/21 13:11:42;;;;;;;11.55;2.40;;;;;;;;;;5050027;28;20149;-72
2024/01/21 13:14:09;;;;;;;4.43;2.53;;;;;;;;;;5065277;28;20050;-71
2024/01/21 13:16:35;;;;;;;13.65;2.92;;;;;;;;;;5061042;28;20041;-72
2024/01/21 13:19:01;;;;;;;12.45;2.85;;;;;;;;;;5040792;28;20445;-71
2024/01/21 13:21:28;;;;;;;11.32;2.97;;;;;;;;;;5036755;28;20032;-72
2024/01/21 13:23:54;;;;;;;8.85;2.70;;;;;;;;;;5061118;28;20032;-72
2024/01/21 13:26:20;;;;;;;2.30;2.10;;;;;;;;;;5040589;28;20021;-72
2024/01/21 13:31:32;;;;;;;8.43;2.95;;;;;;;;;;5058151;28;20663;-72
2024/01/21 13:33:59;;;;;;;9.25;4.28;;;;;;;;;;5059992;28;20479;-72
2024/01/21 13:36:26;;;;;;;6.50;3.50;;;;;;;;;;5056827;28;20032;-72
2024/01/21 13:38:52;;;;;;;5.47;3.03;;;;;;;;;;5060915;28;20029;-72
2024/01/21 13:41:19;;;;;;;7.45;3.42;;;;;;;;;;5058343;28;20090;-71
2024/01/21 13:43:45;;;;;;;8.43;3.83;;;;;;;;;;5057370;28;20044;-72
2024/01/21 13:46:11;;;;;;;10.27;3.22;;;;;;;;;;5060395;28;20097;-72
2024/01/21 13:48:37;;;;;;;4.15;3.10;;;;;;;;;;5053120;28;20025;-71
2024/01/21 13:51:06;;;;;;;6.30;2.92;;;;;;;;;;5054752;28;20170;-72
2024/01/21 13:53:32;;;;;;;4.47;2.25;;;;;;;;;;5064350;28;20070;-71
2024/01/21 13:55:58;;;;;;;7.82;3.20;;;;;;;;;;5054310;28;20093;-72
2024/01/21 13:58:24;;;;;;;10.32;3.15;;;;;;;;;;5056208;28;20090;-71
2024/01/21 14:00:50;;;;;;;3.97;2.88;;;;;;;;;;5052904;28;20032;-71
2024/01/21 14:03:17;;;;;;;7.03;2.97;;;;;;;;;;5044352;28;20264;-71
2024/01/21 14:05:43;;;;;;;5.70;2.38;;;;;;;;;;5044439;28;20174;-71
2024/01/21 14:08:10;;;;;;;8.45;3.35;;;;;;;;;;5053631;28;20025;-70
2024/01/21 14:10:36;;;;;;;5.28;1.98;;;;;;;;;;5054570;28;20406;-70
2024/01/21 14:13:02;;;;;;;7.03;2.63;;;;;;;;;;5054300;28;20047;-70
2024/01/21 14:15:28;;;;;;;7.47;2.88;;;;;;;;;;5034735;28;20033;-72
2024/01/21 14:17:55;;;;;;;6.97;3.08;;;;;;;;;;5065385;28;20020;-72
2024/01/21 14:20:21;;;;;;;9.10;2.72;;;;;;;;;;5064916;28;20033;-71
2024/01/21 14:22:47;;;;;;;7.80;3.35;;;;;;;;;;5058837;28;20031;-72
2024/01/21 14:25:35;;;;;;;6.57;3.00;;;;;;;;;;5043466;28;20032;-71
2024/01/21 14:28:01;;;;;;;3.63;2.70;;;;;;;;;;5043876;28;20380;-73
2024/01/21 14:30:32;;;;;;;4.82;2.10;;;;;;;;;;5062813;28;20025;-72
2024/01/21 14:32:58;;;;;;;4.15;2.30;;;;;;;;;;5044541;28;20060;-73
2024/01/21 14:35:26;;;;;;;3.35;2.05;;;;;;;;;;5057470;28;20243;-71
2024/01/21 14:37:53;;;;;;;6.32;2.70;;;;;;;;;;5059614;28;20567;-71
2024/01/21 14:40:19;;;;;;;3.75;2.13;;;;;;;;;;5066003;28;20477;-71